sensor_id;sensor_type;location;lat;lon;timestamp;P1;durP1;ratioP1;P2;durP2;ratioP2
82920;SDS011;77126;52.372;9.722;2024-03-17T00:00:16;5.07;;;3.30;;
82920;SDS011;77126;52.372;9.722;2024-03-17T00:02:43;5.38;;;3.30;;
82920;SDS011;77126;52.372;9.722;2024-03-17T00:05:09;5.15;;;2.97;;
82920;SDS011;77126;52.372;9.722;2024-03-17T00:07:35;9.40;;;3.70;;
82920;SDS011;77126;52.372;9.722;2024-03-17T00:10:00;5.43;;;3.10;;
82920;SDS011;77126;52.372;9.722;2024-03-17T00:12:25;4.63;;;3.00;;
82920;SDS011;77126;52.372;9.722;2024-03-17T00:14:51;4.65;;;2.97;;
82920;SDS011;77126;52.372;9.722;2024-03-17T00:17:16;5.70;;;3.20;;
82920;SDS011;77126;52.372;9.722;2024-03-17T00:19:42;4.85;;;3.20;;
82920;SDS011;77126;52.372;9.722;2024-03-17T00:22:07;4.15;;;2.97;;
82920;SDS011;77126;52.372;9.722;2024-03-17T00:24:34;5.20;;;3.17;;
82920;SDS011;77126;52.372;9.722;2024-03-17T00:27:02;5.50;;;3.13;;
82920;SDS011;77126;52.372;9.722;2024-03-17T00:29:28;5.00;;;3.00;;
82920;SDS011;77126;52.372;9.722;2024-03-17T00:31:53;5.43;;;3.00;;
82920;SDS011;77126;52.372;9.722;2024-03-17T00:34:19;4.95;;;3.00;;
82920;SDS011;77126;52.372;9.722;2024-03-17T00:36:45;5.10;;;2.97;;
82920;SDS011;77126;52.372;9.722;2024-03-17T00:39:10;4.88;;;2.95;;
82920;SDS011;77126;52.372;9.722;2024-03-17T00:41:36;5.93;;;3.13;;
82920;SDS011;77126;52.372;9.722;2024-03-17T00:44:01;5.25;;;2.95;;
82920;SDS011;77126;52.372;9.722;2024-03-17T00:46:28;4.72;;;2.92;;
82920;SDS011;77126;52.372;9.722;2024-03-17T00:48:53;5.13;;;3.05;;
82920;SDS011;77126;52.372;9.722;2024-03-17T00:51:19;5.43;;;2.78;;
82920;SDS011;77126;52.372;9.722;2024-03-17T00:53:44;5.70;;;3.35;;
82920;SDS011;77126;52.372;9.722;2024-03-17T00:56:09;5.25;;;2.85;;
82920;SDS011;77126;52.372;9.722;2024-03-17T00:58:35;4.60;;;2.70;;
82920;SDS011;77126;52.372;9.722;2024-03-17T01:01:00;6.70;;;3.13;;
82920;SDS011;77126;52.372;9.722;2024-03-17T01:03:26;4.78;;;2.97;;
82920;SDS011;77126;52.372;9.722;2024-03-17T01:05:52;4.63;;;2.60;;
82920;SDS011;77126;52.372;9.722;2024-03-17T01:08:18;4.18;;;2.95;;
82920;SDS011;77126;52.372;9.722;2024-03-17T01:10:44;4.63;;;2.75;;
82920;SDS011;77126;52.372;9.722;2024-03-17T01:13:10;4.22;;;2.90;;
82920;SDS011;77126;52.372;9.722;2024-03-17T01:15:36;5.40;;;2.63;;
82920;SDS011;77126;52.372;9.722;2024-03-17T01:18:03;4.15;;;3.00;;
82920;SDS011;77126;52.372;9.722;2024-03-17T01:20:35;3.95;;;2.70;;
82920;SDS011;77126;52.372;9.722;2024-03-17T01:25:27;4.30;;;2.80;;
82920;SDS011;77126;52.372;9.722;2024-03-17T01:27:54;4.88;;;2.83;;
82920;SDS011;77126;52.372;9.722;2024-03-17T01:30:20;5.65;;;3.13;;
82920;SDS011;77126;52.372;9.722;2024-03-17T01:32:45;3.95;;;2.60;;
82920;SDS011;77126;52.372;9.722;2024-03-17T01:35:11;4.68;;;2.80;;
82920;SDS011;77126;52.372;9.722;2024-03-17T01:37:37;3.63;;;2.70;;
82920;SDS011;77126;52.372;9.722;2024-03-17T01:40:02;6.10;;;2.92;;
82920;SDS011;77126;52.372;9.722;2024-03-17T01:42:33;4.93;;;3.03;;
82920;SDS011;77126;52.372;9.722;2024-03-17T01:44:58;4.22;;;2.88;;
82920;SDS011;77126;52.372;9.722;2024-03-17T01:47:24;4.45;;;2.78;;
82920;SDS011;77126;52.372;9.722;2024-03-17T01:49:49;4.72;;;3.10;;
82920;SDS011;77126;52.372;9.722;2024-03-17T01:52:16;4.80;;;2.88;;
82920;SDS011;77126;52.372;9.722;2024-03-17T01:54:41;4.22;;;2.70;;
82920;SDS011;77126;52.372;9.722;2024-03-17T01:57:07;4.68;;;2.72;;
82920;SDS011;77126;52.372;9.722;2024-03-17T01:59:33;4.75;;;2.50;;
82920;SDS011;77126;52.372;9.722;2024-03-17T02:01:58;4.22;;;2.58;;
82920;SDS011;77126;52.372;9.722;2024-03-17T02:04:24;3.90;;;2.60;;
82920;SDS011;77126;52.372;9.722;2024-03-17T02:06:50;3.67;;;2.75;;
82920;SDS011;77126;52.372;9.722;2024-03-17T02:09:15;3.92;;;2.72;;
82920;SDS011;77126;52.372;9.722;2024-03-17T02:11:40;4.82;;;2.55;;
82920;SDS011;77126;52.372;9.722;2024-03-17T02:14:07;4.95;;;2.65;;
82920;SDS011;77126;52.372;9.722;2024-03-17T02:16:32;5.32;;;2.83;;
82920;SDS011;77126;52.372;9.722;2024-03-17T02:18:58;3.80;;;2.53;;
82920;SDS011;77126;52.372;9.722;2024-03-17T02:21:24;4.65;;;3.00;;
82920;SDS011;77126;52.372;9.722;2024-03-17T02:23:52;3.67;;;2.50;;
82920;SDS011;77126;52.372;9.722;2024-03-17T02:26:18;4.40;;;2.35;;
82920;SDS011;77126;52.372;9.722;2024-03-17T02:28:44;4.80;;;2.88;;
82920;SDS011;77126;52.372;9.722;2024-03-17T02:31:11;4.38;;;2.70;;
82920;SDS011;77126;52.372;9.722;2024-03-17T02:33:37;4.32;;;2.67;;
82920;SDS011;77126;52.372;9.722;2024-03-17T02:36:03;4.50;;;2.45;;
82920;SDS011;77126;52.372;9.722;2024-03-17T02:38:29;4.07;;;2.85;;
82920;SDS011;77126;52.372;9.722;2024-03-17T02:41:13;4.30;;;2.60;;
82920;SDS011;77126;52.372;9.722;2024-03-17T02:43:39;3.75;;;2.53;;
82920;SDS011;77126;52.372;9.722;2024-03-17T02:46:04;4.07;;;2.50;;
82920;SDS011;77126;52.372;9.722;2024-03-17T02:48:30;4.38;;;2.83;;
82920;SDS011;77126;52.372;9.722;2024-03-17T02:50:55;3.83;;;2.58;;
82920;SDS011;77126;52.372;9.722;2024-03-17T02:53:21;3.40;;;2.55;;
82920;SDS011;77126;52.372;9.722;2024-03-17T02:55:46;5.60;;;2.60;;
82920;SDS011;77126;52.372;9.722;2024-03-17T02:58:12;4.60;;;2.60;;
82920;SDS011;77126;52.372;9.722;2024-03-17T03:00:37;4.72;;;2.78;;
82920;SDS011;77126;52.372;9.722;2024-03-17T03:03:03;3.92;;;2.70;;
82920;SDS011;77126;52.372;9.722;2024-03-17T03:05:29;4.95;;;2.88;;
82920;SDS011;77126;52.372;9.722;2024-03-17T03:07:55;3.80;;;2.35;;
82920;SDS011;77126;52.372;9.722;2024-03-17T03:10:20;4.28;;;2.40;;
82920;SDS011;77126;52.372;9.722;2024-03-17T03:12:46;3.60;;;2.40;;
82920;SDS011;77126;52.372;9.722;2024-03-17T03:15:11;3.97;;;2.33;;
82920;SDS011;77126;52.372;9.722;2024-03-17T03:17:37;5.25;;;2.80;;
82920;SDS011;77126;52.372;9.722;2024-03-17T03:20:03;4.47;;;2.50;;
82920;SDS011;77126;52.372;9.722;2024-03-17T03:22:30;4.57;;;2.70;;
82920;SDS011;77126;52.372;9.722;2024-03-17T03:24:56;3.95;;;2.50;;
82920;SDS011;77126;52.372;9.722;2024-03-17T03:27:21;3.20;;;2.45;;
82920;SDS011;77126;52.372;9.722;2024-03-17T03:29:47;3.15;;;2.22;;
82920;SDS011;77126;52.372;9.722;2024-03-17T03:32:12;3.67;;;2.40;;
82920;SDS011;77126;52.372;9.722;2024-03-17T03:34:37;3.95;;;2.47;;
82920;SDS011;77126;52.372;9.722;2024-03-17T03:37:04;3.95;;;2.70;;
82920;SDS011;77126;52.372;9.722;2024-03-17T03:39:32;4.03;;;2.55;;
82920;SDS011;77126;52.372;9.722;2024-03-17T03:41:57;3.72;;;2.35;;
82920;SDS011;77126;52.372;9.722;2024-03-17T03:44:23;4.35;;;2.35;;
82920;SDS011;77126;52.372;9.722;2024-03-17T03:46:48;4.82;;;2.60;;
82920;SDS011;77126;52.372;9.722;2024-03-17T03:49:13;3.17;;;2.60;;
82920;SDS011;77126;52.372;9.722;2024-03-17T03:51:39;3.85;;;2.65;;
82920;SDS011;77126;52.372;9.722;2024-03-17T03:54:04;3.90;;;2.67;;
82920;SDS011;77126;52.372;9.722;2024-03-17T03:56:31;3.40;;;2.25;;
82920;SDS011;77126;52.372;9.722;2024-03-17T03:58:57;4.72;;;2.50;;
82920;SDS011;77126;52.372;9.722;2024-03-17T04:01:22;4.00;;;2.55;;
82920;SDS011;77126;52.372;9.722;2024-03-17T04:03:48;3.60;;;2.28;;
82920;SDS011;77126;52.372;9.722;2024-03-17T04:06:14;4.30;;;2.45;;
82920;SDS011;77126;52.372;9.722;2024-03-17T04:08:41;4.63;;;2.50;;
82920;SDS011;77126;52.372;9.722;2024-03-17T04:11:07;4.10;;;2.53;;
82920;SDS011;77126;52.372;9.722;2024-03-17T04:13:32;4.05;;;2.38;;
82920;SDS011;77126;52.372;9.722;2024-03-17T04:15:58;3.42;;;2.42;;
82920;SDS011;77126;52.372;9.722;2024-03-17T04:18:25;4.20;;;2.70;;
82920;SDS011;77126;52.372;9.722;2024-03-17T04:20:54;4.05;;;2.83;;
82920;SDS011;77126;52.372;9.722;2024-03-17T04:23:20;3.65;;;2.33;;
82920;SDS011;77126;52.372;9.722;2024-03-17T04:25:46;3.60;;;2.40;;
82920;SDS011;77126;52.372;9.722;2024-03-17T04:28:13;3.30;;;2.33;;
82920;SDS011;77126;52.372;9.722;2024-03-17T04:30:39;3.83;;;2.50;;
82920;SDS011;77126;52.372;9.722;2024-03-17T04:33:04;3.42;;;2.50;;
82920;SDS011;77126;52.372;9.722;2024-03-17T04:35:31;3.47;;;2.17;;
82920;SDS011;77126;52.372;9.722;2024-03-17T04:38:01;3.47;;;2.45;;
82920;SDS011;77126;52.372;9.722;2024-03-17T04:40:26;4.15;;;2.70;;
82920;SDS011;77126;52.372;9.722;2024-03-17T04:42:51;4.75;;;2.33;;
82920;SDS011;77126;52.372;9.722;2024-03-17T04:45:17;3.80;;;2.30;;
82920;SDS011;77126;52.372;9.722;2024-03-17T04:47:42;3.78;;;2.30;;
82920;SDS011;77126;52.372;9.722;2024-03-17T04:50:08;3.50;;;2.20;;
82920;SDS011;77126;52.372;9.722;2024-03-17T04:52:33;4.18;;;2.40;;
82920;SDS011;77126;52.372;9.722;2024-03-17T04:54:59;3.50;;;2.40;;
82920;SDS011;77126;52.372;9.722;2024-03-17T04:57:24;3.47;;;2.50;;
82920;SDS011;77126;52.372;9.722;2024-03-17T04:59:50;3.03;;;2.33;;
82920;SDS011;77126;52.372;9.722;2024-03-17T05:02:15;3.40;;;2.00;;
82920;SDS011;77126;52.372;9.722;2024-03-17T05:04:40;3.45;;;2.40;;
82920;SDS011;77126;52.372;9.722;2024-03-17T05:07:07;3.33;;;2.33;;
82920;SDS011;77126;52.372;9.722;2024-03-17T05:09:34;4.10;;;2.10;;
82920;SDS011;77126;52.372;9.722;2024-03-17T05:11:59;2.97;;;2.03;;
82920;SDS011;77126;52.372;9.722;2024-03-17T05:14:24;4.15;;;2.45;;
82920;SDS011;77126;52.372;9.722;2024-03-17T05:16:51;3.60;;;2.20;;
82920;SDS011;77126;52.372;9.722;2024-03-17T05:19:17;3.97;;;2.30;;
82920;SDS011;77126;52.372;9.722;2024-03-17T05:21:42;3.63;;;2.40;;
82920;SDS011;77126;52.372;9.722;2024-03-17T05:24:09;3.95;;;2.40;;
82920;SDS011;77126;52.372;9.722;2024-03-17T05:26:35;2.70;;;1.95;;
82920;SDS011;77126;52.372;9.722;2024-03-17T05:29:00;3.33;;;2.25;;
82920;SDS011;77126;52.372;9.722;2024-03-17T05:31:26;2.83;;;2.17;;
82920;SDS011;77126;52.372;9.722;2024-03-17T05:33:51;3.65;;;2.25;;
82920;SDS011;77126;52.372;9.722;2024-03-17T05:36:17;4.07;;;2.03;;
82920;SDS011;77126;52.372;9.722;2024-03-17T05:38:45;4.07;;;2.10;;
82920;SDS011;77126;52.372;9.722;2024-03-17T05:41:10;3.50;;;2.30;;
82920;SDS011;77126;52.372;9.722;2024-03-17T05:43:36;3.53;;;2.13;;
82920;SDS011;77126;52.372;9.722;2024-03-17T05:46:03;4.20;;;2.35;;
82920;SDS011;77126;52.372;9.722;2024-03-17T05:48:31;3.38;;;2.65;;
82920;SDS011;77126;52.372;9.722;2024-03-17T05:51:09;3.50;;;2.30;;
82920;SDS011;77126;52.372;9.722;2024-03-17T05:53:36;3.28;;;2.25;;
82920;SDS011;77126;52.372;9.722;2024-03-17T05:56:02;3.65;;;2.20;;
82920;SDS011;77126;52.372;9.722;2024-03-17T05:58:28;3.35;;;2.10;;
82920;SDS011;77126;52.372;9.722;2024-03-17T06:00:53;3.63;;;2.20;;
82920;SDS011;77126;52.372;9.722;2024-03-17T06:03:19;3.95;;;2.35;;
82920;SDS011;77126;52.372;9.722;2024-03-17T06:05:44;3.08;;;2.28;;
82920;SDS011;77126;52.372;9.722;2024-03-17T06:08:12;3.30;;;2.15;;
82920;SDS011;77126;52.372;9.722;2024-03-17T06:10:41;3.45;;;2.35;;
82920;SDS011;77126;52.372;9.722;2024-03-17T06:13:08;4.47;;;2.38;;
82920;SDS011;77126;52.372;9.722;2024-03-17T06:15:37;3.88;;;2.38;;
82920;SDS011;77126;52.372;9.722;2024-03-17T06:18:02;3.17;;;2.22;;
82920;SDS011;77126;52.372;9.722;2024-03-17T06:20:28;4.70;;;2.22;;
82920;SDS011;77126;52.372;9.722;2024-03-17T06:22:54;2.72;;;1.90;;
82920;SDS011;77126;52.372;9.722;2024-03-17T06:25:19;3.67;;;2.25;;
82920;SDS011;77126;52.372;9.722;2024-03-17T06:27:46;3.75;;;2.30;;
82920;SDS011;77126;52.372;9.722;2024-03-17T06:30:12;3.17;;;2.25;;
82920;SDS011;77126;52.372;9.722;2024-03-17T06:32:39;3.83;;;2.10;;
82920;SDS011;77126;52.372;9.722;2024-03-17T06:35:10;3.33;;;2.60;;
82920;SDS011;77126;52.372;9.722;2024-03-17T06:37:36;2.67;;;2.05;;
82920;SDS011;77126;52.372;9.722;2024-03-17T06:40:01;3.10;;;2.20;;
82920;SDS011;77126;52.372;9.722;2024-03-17T06:42:28;4.28;;;2.55;;
82920;SDS011;77126;52.372;9.722;2024-03-17T06:44:54;5.03;;;2.33;;
82920;SDS011;77126;52.372;9.722;2024-03-17T06:47:20;4.88;;;3.05;;
82920;SDS011;77126;52.372;9.722;2024-03-17T06:49:45;4.88;;;2.58;;
82920;SDS011;77126;52.372;9.722;2024-03-17T06:52:10;7.45;;;2.85;;
82920;SDS011;77126;52.372;9.722;2024-03-17T06:54:36;5.35;;;2.50;;
82920;SDS011;77126;52.372;9.722;2024-03-17T06:57:01;5.10;;;3.08;;
82920;SDS011;77126;52.372;9.722;2024-03-17T06:59:26;7.47;;;2.83;;
82920;SDS011;77126;52.372;9.722;2024-03-17T07:01:52;7.45;;;2.95;;
82920;SDS011;77126;52.372;9.722;2024-03-17T07:04:17;8.30;;;3.50;;
82920;SDS011;77126;52.372;9.722;2024-03-17T07:06:43;5.80;;;3.47;;
82920;SDS011;77126;52.372;9.722;2024-03-17T07:09:08;5.38;;;3.17;;
82920;SDS011;77126;52.372;9.722;2024-03-17T07:11:34;5.03;;;2.97;;
82920;SDS011;77126;52.372;9.722;2024-03-17T07:14:00;5.45;;;2.78;;
82920;SDS011;77126;52.372;9.722;2024-03-17T07:16:25;8.27;;;3.38;;
82920;SDS011;77126;52.372;9.722;2024-03-17T07:18:51;5.13;;;3.13;;
82920;SDS011;77126;52.372;9.722;2024-03-17T07:21:17;6.60;;;2.80;;
82920;SDS011;77126;52.372;9.722;2024-03-17T07:23:43;6.32;;;2.85;;
82920;SDS011;77126;52.372;9.722;2024-03-17T07:26:08;5.93;;;3.42;;
82920;SDS011;77126;52.372;9.722;2024-03-17T07:28:34;5.35;;;2.92;;
82920;SDS011;77126;52.372;9.722;2024-03-17T07:30:59;6.82;;;3.10;;
82920;SDS011;77126;52.372;9.722;2024-03-17T07:33:25;4.40;;;2.60;;
82920;SDS011;77126;52.372;9.722;2024-03-17T07:35:51;4.03;;;2.55;;
82920;SDS011;77126;52.372;9.722;2024-03-17T07:38:18;4.93;;;2.42;;
82920;SDS011;77126;52.372;9.722;2024-03-17T07:40:44;6.00;;;2.70;;
82920;SDS011;77126;52.372;9.722;2024-03-17T07:43:10;4.20;;;2.47;;
82920;SDS011;77126;52.372;9.722;2024-03-17T07:45:36;4.57;;;2.53;;
82920;SDS011;77126;52.372;9.722;2024-03-17T07:48:02;4.70;;;2.28;;
82920;SDS011;77126;52.372;9.722;2024-03-17T07:50:28;4.82;;;2.17;;
82920;SDS011;77126;52.372;9.722;2024-03-17T07:52:53;3.53;;;2.17;;
82920;SDS011;77126;52.372;9.722;2024-03-17T07:55:18;3.97;;;1.90;;
82920;SDS011;77126;52.372;9.722;2024-03-17T07:57:44;4.15;;;2.38;;
82920;SDS011;77126;52.372;9.722;2024-03-17T08:00:10;3.25;;;2.20;;
82920;SDS011;77126;52.372;9.722;2024-03-17T08:02:49;3.75;;;2.35;;
82920;SDS011;77126;52.372;9.722;2024-03-17T08:05:15;5.40;;;2.40;;
82920;SDS011;77126;52.372;9.722;2024-03-17T08:07:40;3.58;;;2.30;;
82920;SDS011;77126;52.372;9.722;2024-03-17T08:10:07;4.00;;;2.30;;
82920;SDS011;77126;52.372;9.722;2024-03-17T08:12:33;4.82;;;2.20;;
82920;SDS011;77126;52.372;9.722;2024-03-17T08:14:58;3.30;;;1.90;;
82920;SDS011;77126;52.372;9.722;2024-03-17T08:17:24;6.07;;;2.33;;
82920;SDS011;77126;52.372;9.722;2024-03-17T08:19:50;4.95;;;2.45;;
82920;SDS011;77126;52.372;9.722;2024-03-17T08:22:15;4.20;;;2.25;;
82920;SDS011;77126;52.372;9.722;2024-03-17T08:24:41;4.53;;;2.03;;
82920;SDS011;77126;52.372;9.722;2024-03-17T08:27:06;4.88;;;2.25;;
82920;SDS011;77126;52.372;9.722;2024-03-17T08:29:31;6.53;;;2.42;;
82920;SDS011;77126;52.372;9.722;2024-03-17T08:31:58;3.50;;;1.90;;
82920;SDS011;77126;52.372;9.722;2024-03-17T08:34:23;5.28;;;2.10;;
82920;SDS011;77126;52.372;9.722;2024-03-17T08:36:49;4.90;;;2.25;;
82920;SDS011;77126;52.372;9.722;2024-03-17T08:39:14;3.78;;;1.95;;
82920;SDS011;77126;52.372;9.722;2024-03-17T08:41:40;3.35;;;2.30;;
82920;SDS011;77126;52.372;9.722;2024-03-17T08:44:05;4.07;;;2.10;;
82920;SDS011;77126;52.372;9.722;2024-03-17T08:46:31;4.18;;;2.38;;
82920;SDS011;77126;52.372;9.722;2024-03-17T08:48:57;4.35;;;2.45;;
82920;SDS011;77126;52.372;9.722;2024-03-17T08:51:23;6.63;;;2.88;;
82920;SDS011;77126;52.372;9.722;2024-03-17T08:53:48;5.47;;;2.97;;
82920;SDS011;77126;52.372;9.722;2024-03-17T08:56:14;8.02;;;3.30;;
82920;SDS011;77126;52.372;9.722;2024-03-17T08:58:39;5.85;;;3.30;;
82920;SDS011;77126;52.372;9.722;2024-03-17T09:01:05;5.15;;;2.90;;
82920;SDS011;77126;52.372;9.722;2024-03-17T09:03:32;5.72;;;3.00;;
82920;SDS011;77126;52.372;9.722;2024-03-17T09:05:57;4.78;;;3.08;;
82920;SDS011;77126;52.372;9.722;2024-03-17T09:08:23;5.47;;;3.00;;
82920;SDS011;77126;52.372;9.722;2024-03-17T09:10:50;6.93;;;3.55;;
82920;SDS011;77126;52.372;9.722;2024-03-17T09:13:18;7.22;;;3.78;;
82920;SDS011;77126;52.372;9.722;2024-03-17T09:18:25;5.63;;;3.42;;
82920;SDS011;77126;52.372;9.722;2024-03-17T09:20:56;5.55;;;3.33;;
82920;SDS011;77126;52.372;9.722;2024-03-17T09:23:22;10.10;;;4.00;;
82920;SDS011;77126;52.372;9.722;2024-03-17T09:25:58;6.72;;;3.75;;
82920;SDS011;77126;52.372;9.722;2024-03-17T09:28:25;6.90;;;3.83;;
82920;SDS011;77126;52.372;9.722;2024-03-17T09:30:51;7.38;;;3.85;;
82920;SDS011;77126;52.372;9.722;2024-03-17T09:33:17;7.57;;;4.32;;
82920;SDS011;77126;52.372;9.722;2024-03-17T09:35:44;8.05;;;4.22;;
82920;SDS011;77126;52.372;9.722;2024-03-17T09:38:17;7.53;;;3.97;;
82920;SDS011;77126;52.372;9.722;2024-03-17T09:40:46;8.57;;;3.90;;
82920;SDS011;77126;52.372;9.722;2024-03-17T09:43:12;6.93;;;4.30;;
82920;SDS011;77126;52.372;9.722;2024-03-17T09:45:38;6.80;;;3.85;;
82920;SDS011;77126;52.372;9.722;2024-03-17T09:48:03;6.97;;;4.03;;
82920;SDS011;77126;52.372;9.722;2024-03-17T09:50:29;6.70;;;4.50;;
82920;SDS011;77126;52.372;9.722;2024-03-17T09:52:55;7.00;;;4.20;;
82920;SDS011;77126;52.372;9.722;2024-03-17T09:55:20;7.57;;;4.15;;
82920;SDS011;77126;52.372;9.722;2024-03-17T09:57:46;7.80;;;4.30;;
82920;SDS011;77126;52.372;9.722;2024-03-17T10:00:13;7.80;;;4.20;;
82920;SDS011;77126;52.372;9.722;2024-03-17T10:02:45;9.13;;;3.97;;
82920;SDS011;77126;52.372;9.722;2024-03-17T10:05:22;6.97;;;4.35;;
82920;SDS011;77126;52.372;9.722;2024-03-17T10:10:14;6.15;;;3.83;;
82920;SDS011;77126;52.372;9.722;2024-03-17T10:12:41;10.90;;;4.50;;
82920;SDS011;77126;52.372;9.722;2024-03-17T10:15:07;7.40;;;4.47;;
82920;SDS011;77126;52.372;9.722;2024-03-17T10:17:35;7.57;;;3.95;;
82920;SDS011;77126;52.372;9.722;2024-03-17T10:20:20;7.65;;;4.00;;
82920;SDS011;77126;52.372;9.722;2024-03-17T10:25:39;8.23;;;4.88;;
82920;SDS011;77126;52.372;9.722;2024-03-17T10:28:11;7.25;;;4.10;;
82920;SDS011;77126;52.372;9.722;2024-03-17T10:30:38;8.77;;;4.30;;
82920;SDS011;77126;52.372;9.722;2024-03-17T10:33:05;7.30;;;4.50;;
82920;SDS011;77126;52.372;9.722;2024-03-17T10:35:34;8.90;;;4.25;;
82920;SDS011;77126;52.372;9.722;2024-03-17T10:38:04;6.28;;;4.28;;
82920;SDS011;77126;52.372;9.722;2024-03-17T10:40:31;6.32;;;4.50;;
82920;SDS011;77126;52.372;9.722;2024-03-17T10:42:58;7.57;;;4.05;;
82920;SDS011;77126;52.372;9.722;2024-03-17T10:45:25;8.38;;;4.50;;
82920;SDS011;77126;52.372;9.722;2024-03-17T10:47:51;8.25;;;4.43;;
82920;SDS011;77126;52.372;9.722;2024-03-17T10:50:18;7.05;;;4.35;;
82920;SDS011;77126;52.372;9.722;2024-03-17T10:52:46;8.73;;;4.25;;
82920;SDS011;77126;52.372;9.722;2024-03-17T10:55:25;8.98;;;4.80;;
82920;SDS011;77126;52.372;9.722;2024-03-17T10:57:54;9.02;;;4.70;;
82920;SDS011;77126;52.372;9.722;2024-03-17T11:00:23;7.28;;;4.50;;
82920;SDS011;77126;52.372;9.722;2024-03-17T11:02:52;8.32;;;4.53;;
82920;SDS011;77126;52.372;9.722;2024-03-17T11:05:24;6.72;;;4.13;;
82920;SDS011;77126;52.372;9.722;2024-03-17T11:07:51;9.07;;;4.43;;
82920;SDS011;77126;52.372;9.722;2024-03-17T11:13:05;8.45;;;4.80;;
82920;SDS011;77126;52.372;9.722;2024-03-17T11:15:48;8.10;;;4.68;;
82920;SDS011;77126;52.372;9.722;2024-03-17T11:23:37;9.48;;;4.82;;
82920;SDS011;77126;52.372;9.722;2024-03-17T11:26:03;8.70;;;4.72;;
82920;SDS011;77126;52.372;9.722;2024-03-17T11:33:58;10.30;;;5.32;;
82920;SDS011;77126;52.372;9.722;2024-03-17T11:39:00;8.45;;;5.15;;
82920;SDS011;77126;52.372;9.722;2024-03-17T11:46:53;7.40;;;3.95;;
82920;SDS011;77126;52.372;9.722;2024-03-17T11:49:24;8.02;;;4.45;;
82920;SDS011;77126;52.372;9.722;2024-03-17T11:51:49;7.85;;;4.47;;
82920;SDS011;77126;52.372;9.722;2024-03-17T11:54:26;6.88;;;4.18;;
82920;SDS011;77126;52.372;9.722;2024-03-17T11:56:54;7.63;;;4.13;;
82920;SDS011;77126;52.372;9.722;2024-03-17T11:59:20;7.97;;;4.32;;
82920;SDS011;77126;52.372;9.722;2024-03-17T12:01:46;6.45;;;3.90;;
82920;SDS011;77126;52.372;9.722;2024-03-17T12:04:15;8.65;;;3.95;;
82920;SDS011;77126;52.372;9.722;2024-03-17T12:06:48;7.00;;;4.20;;
82920;SDS011;77126;52.372;9.722;2024-03-17T12:09:28;7.53;;;4.07;;
82920;SDS011;77126;52.372;9.722;2024-03-17T12:11:58;7.05;;;4.30;;
82920;SDS011;77126;52.372;9.722;2024-03-17T12:14:25;6.65;;;4.07;;
82920;SDS011;77126;52.372;9.722;2024-03-17T12:16:51;7.05;;;4.30;;
82920;SDS011;77126;52.372;9.722;2024-03-17T12:19:18;7.85;;;4.30;;
82920;SDS011;77126;52.372;9.722;2024-03-17T12:21:44;7.03;;;3.97;;
82920;SDS011;77126;52.372;9.722;2024-03-17T12:24:18;7.57;;;4.20;;
82920;SDS011;77126;52.372;9.722;2024-03-17T12:26:46;9.15;;;4.28;;
82920;SDS011;77126;52.372;9.722;2024-03-17T12:29:57;7.63;;;4.32;;
82920;SDS011;77126;52.372;9.722;2024-03-17T12:32:02;6.60;;;3.80;;
82920;SDS011;77126;52.372;9.722;2024-03-17T12:34:31;6.13;;;3.80;;
82920;SDS011;77126;52.372;9.722;2024-03-17T12:36:57;7.88;;;4.20;;
82920;SDS011;77126;52.372;9.722;2024-03-17T12:39:30;7.38;;;3.83;;
82920;SDS011;77126;52.372;9.722;2024-03-17T12:42:03;9.88;;;4.15;;
82920;SDS011;77126;52.372;9.722;2024-03-17T12:44:33;7.68;;;4.03;;
82920;SDS011;77126;52.372;9.722;2024-03-17T12:47:00;6.53;;;4.03;;
82920;SDS011;77126;52.372;9.722;2024-03-17T12:49:27;7.07;;;3.80;;
82920;SDS011;77126;52.372;9.722;2024-03-17T12:51:53;7.70;;;4.10;;
82920;SDS011;77126;52.372;9.722;2024-03-17T12:54:19;6.72;;;4.00;;
82920;SDS011;77126;52.372;9.722;2024-03-17T12:56:46;6.93;;;4.00;;
82920;SDS011;77126;52.372;9.722;2024-03-17T13:00:16;7.65;;;4.03;;
82920;SDS011;77126;52.372;9.722;2024-03-17T13:02:43;7.20;;;4.00;;
82920;SDS011;77126;52.372;9.722;2024-03-17T13:05:16;7.70;;;4.20;;
82920;SDS011;77126;52.372;9.722;2024-03-17T13:07:43;6.70;;;4.07;;
82920;SDS011;77126;52.372;9.722;2024-03-17T13:10:11;7.32;;;4.10;;
82920;SDS011;77126;52.372;9.722;2024-03-17T13:12:40;5.60;;;3.63;;
82920;SDS011;77126;52.372;9.722;2024-03-17T13:15:08;8.32;;;4.20;;
82920;SDS011;77126;52.372;9.722;2024-03-17T13:17:34;6.10;;;3.45;;
82920;SDS011;77126;52.372;9.722;2024-03-17T13:20:00;6.43;;;3.70;;
82920;SDS011;77126;52.372;9.722;2024-03-17T13:22:26;6.57;;;4.50;;
82920;SDS011;77126;52.372;9.722;2024-03-17T13:24:51;7.15;;;3.80;;
82920;SDS011;77126;52.372;9.722;2024-03-17T13:27:16;5.43;;;4.18;;
82920;SDS011;77126;52.372;9.722;2024-03-17T13:29:42;8.52;;;4.55;;
82920;SDS011;77126;52.372;9.722;2024-03-17T13:32:11;7.10;;;3.92;;
82920;SDS011;77126;52.372;9.722;2024-03-17T13:34:37;7.60;;;4.15;;
82920;SDS011;77126;52.372;9.722;2024-03-17T13:37:02;6.88;;;3.72;;
82920;SDS011;77126;52.372;9.722;2024-03-17T13:39:31;8.43;;;4.10;;
82920;SDS011;77126;52.372;9.722;2024-03-17T13:41:58;6.32;;;3.53;;
82920;SDS011;77126;52.372;9.722;2024-03-17T13:44:32;7.15;;;3.88;;
82920;SDS011;77126;52.372;9.722;2024-03-17T13:46:58;6.00;;;3.65;;
82920;SDS011;77126;52.372;9.722;2024-03-17T13:49:24;6.28;;;3.70;;
82920;SDS011;77126;52.372;9.722;2024-03-17T13:51:49;6.03;;;3.65;;
82920;SDS011;77126;52.372;9.722;2024-03-17T13:54:15;6.72;;;3.63;;
82920;SDS011;77126;52.372;9.722;2024-03-17T13:56:40;7.68;;;4.07;;
82920;SDS011;77126;52.372;9.722;2024-03-17T13:59:06;8.75;;;3.92;;
82920;SDS011;77126;52.372;9.722;2024-03-17T14:01:31;8.52;;;3.80;;
82920;SDS011;77126;52.372;9.722;2024-03-17T14:03:56;8.45;;;3.95;;
82920;SDS011;77126;52.372;9.722;2024-03-17T14:06:21;5.22;;;3.30;;
82920;SDS011;77126;52.372;9.722;2024-03-17T14:08:47;6.95;;;3.53;;
82920;SDS011;77126;52.372;9.722;2024-03-17T14:11:12;8.55;;;3.42;;
82920;SDS011;77126;52.372;9.722;2024-03-17T14:13:38;7.40;;;4.13;;
82920;SDS011;77126;52.372;9.722;2024-03-17T14:16:04;6.28;;;3.40;;
82920;SDS011;77126;52.372;9.722;2024-03-17T14:18:30;7.25;;;3.60;;
82920;SDS011;77126;52.372;9.722;2024-03-17T14:20:57;6.28;;;3.88;;
82920;SDS011;77126;52.372;9.722;2024-03-17T14:23:23;5.18;;;3.45;;
82920;SDS011;77126;52.372;9.722;2024-03-17T14:25:49;6.05;;;3.38;;
82920;SDS011;77126;52.372;9.722;2024-03-17T14:28:15;6.78;;;3.58;;
82920;SDS011;77126;52.372;9.722;2024-03-17T14:30:40;5.93;;;3.40;;
82920;SDS011;77126;52.372;9.722;2024-03-17T14:33:06;8.20;;;4.00;;
82920;SDS011;77126;52.372;9.722;2024-03-17T14:35:32;5.57;;;3.55;;
82920;SDS011;77126;52.372;9.722;2024-03-17T14:37:58;6.97;;;3.85;;
82920;SDS011;77126;52.372;9.722;2024-03-17T14:40:24;5.60;;;3.45;;
82920;SDS011;77126;52.372;9.722;2024-03-17T14:42:52;5.88;;;3.22;;
82920;SDS011;77126;52.372;9.722;2024-03-17T14:45:18;6.53;;;3.58;;
82920;SDS011;77126;52.372;9.722;2024-03-17T14:47:44;6.10;;;3.13;;
82920;SDS011;77126;52.372;9.722;2024-03-17T14:50:09;6.68;;;3.40;;
82920;SDS011;77126;52.372;9.722;2024-03-17T14:52:37;9.55;;;3.40;;
82920;SDS011;77126;52.372;9.722;2024-03-17T14:55:03;4.93;;;3.42;;
82920;SDS011;77126;52.372;9.722;2024-03-17T14:57:29;8.45;;;3.67;;
82920;SDS011;77126;52.372;9.722;2024-03-17T14:59:55;6.20;;;3.30;;
82920;SDS011;77126;52.372;9.722;2024-03-17T15:02:20;5.40;;;3.53;;
82920;SDS011;77126;52.372;9.722;2024-03-17T15:04:46;5.65;;;3.28;;
82920;SDS011;77126;52.372;9.722;2024-03-17T15:07:12;6.70;;;3.45;;
82920;SDS011;77126;52.372;9.722;2024-03-17T15:09:37;6.88;;;3.55;;
82920;SDS011;77126;52.372;9.722;2024-03-17T15:12:03;6.90;;;3.03;;
82920;SDS011;77126;52.372;9.722;2024-03-17T15:14:28;8.23;;;3.45;;
82920;SDS011;77126;52.372;9.722;2024-03-17T15:16:56;5.63;;;3.15;;